Time;durP1;ratioP1;P1;durP2;ratioP2;P2;SDS_P1;SDS_P2;PMS_P1;PMS_P2;Temp;Humidity;BMP_temperature;BMP_pressure;BME280_temperature;BME280_humidity;BME280_pressure;Samples;Min_cycle;Max_cycle;Signal;HPM_P1;HPM_P2
2022/11/07 00:02:10;;;;;;;75.88;39.97;;;;;;;15.04;100.00;100125.94;5038725;28;20034;-71
2022/11/07 00:04:35;;;;;;;71.65;38.20;;;;;;;15.15;100.00;100122.84;5034943;28;20057;-71
2022/11/07 00:07:02;;;;;;;72.13;37.35;;;;;;;15.17;99.79;100124.31;5035243;28;20041;-71
2022/11/07 00:09:27;;;;;;;79.50;39.28;;;;;;;14.93;100.00;100119.22;5037981;28;20041;-71
2022/11/07 00:11:53;;;;;;;66.35;39.05;;;;;;;14.64;100.00;100128.81;5037134;28;20033;-71
2022/11/07 00:14:19;;;;;;;68.15;37.40;;;;;;;14.85;100.00;100113.97;5036156;28;20072;-71
2022/11/07 00:16:46;;;;;;;73.05;39.75;;;;;;;14.71;100.00;100120.09;5037299;28;20049;-71
2022/11/07 00:19:14;;;;;;;74.38;40.83;;;;;;;14.37;100.00;100135.44;5039039;28;20035;-71
2022/11/07 00:21:40;;;;;;;67.07;39.58;;;;;;;14.43;100.00;100131.25;5036780;28;20039;-71
2022/11/07 00:24:07;;;;;;;76.53;42.38;;;;;;;14.53;100.00;100123.84;5039517;28;20037;-71
2022/11/07 00:26:32;;;;;;;78.82;40.05;;;;;;;14.64;100.00;100127.97;5035185;28;20033;-71
2022/11/07 00:28:58;;;;;;;76.90;42.25;;;;;;;14.34;100.00;100110.97;5036565;28;20356;-71
2022/11/07 00:31:24;;;;;;;73.82;40.15;;;;;;;14.69;100.00;100131.75;5036944;28;20045;-71
2022/11/07 00:33:51;;;;;;;70.85;40.72;;;;;;;14.67;100.00;100127.63;5021739;28;20041;-71
2022/11/07 00:36:19;;;;;;;71.65;38.97;;;;;;;14.47;100.00;100129.06;5036175;28;20327;-71
2022/11/07 00:38:45;;;;;;;70.30;38.83;;;;;;;14.47;100.00;100131.75;5038519;28;20057;-71
2022/11/07 00:41:11;;;;;;;71.38;39.53;;;;;;;14.48;100.00;100120.91;5034927;28;20033;-71
2022/11/07 00:43:36;;;;;;;65.97;39.17;;;;;;;14.63;100.00;100123.66;5036979;28;20033;-71
2022/11/07 00:46:04;;;;;;;66.45;36.95;;;;;;;14.66;100.00;100133.94;5035529;28;20078;-71
2022/11/07 00:48:30;;;;;;;68.07;37.75;;;;;;;14.78;100.00;100124.53;5038872;28;20075;-71
2022/11/07 00:50:56;;;;;;;69.90;38.05;;;;;;;14.76;100.00;100123.03;5036533;28;20214;-71
2022/11/07 00:53:22;;;;;;;70.05;38.03;;;;;;;14.89;100.00;100125.94;5039453;28;20052;-71
2022/11/07 00:55:47;;;;;;;67.40;37.40;;;;;;;15.01;100.00;100125.31;5036373;28;20040;-71
2022/11/07 00:58:13;;;;;;;65.63;37.55;;;;;;;15.05;100.00;100125.78;5037327;28;20273;-71
2022/11/07 01:00:38;;;;;;;64.20;36.42;;;;;;;15.07;100.00;100123.75;5038153;28;20096;-71
2022/11/07 01:05:58;;;;;;;64.68;35.95;;;;;;;15.19;100.00;100124.97;5037428;28;20115;-71
2022/11/07 01:08:24;;;;;;;67.38;36.53;;;;;;;15.16;100.00;100116.50;5035399;28;20064;-71
2022/11/07 01:10:50;;;;;;;66.03;37.78;;;;;;;15.15;100.00;100131.69;5037294;28;20025;-71
2022/11/07 01:13:15;;;;;;;67.97;36.95;;;;;;;15.17;100.00;100124.31;5037700;28;20266;-71
2022/11/07 01:15:41;;;;;;;69.80;38.08;;;;;;;15.14;100.00;100129.19;5037853;28;20048;-71
2022/11/07 01:18:07;;;;;;;69.35;37.15;;;;;;;15.23;100.00;100128.09;5038657;28;20026;-71
2022/11/07 01:20:32;;;;;;;72.63;36.80;;;;;;;15.19;100.00;100122.28;5038374;28;20037;-71
2022/11/07 01:22:57;;;;;;;64.72;37.05;;;;;;;15.16;100.00;100120.00;5035055;28;20343;-71
2022/11/07 01:25:23;;;;;;;64.85;36.60;;;;;;;15.22;100.00;100118.44;5037782;28;20140;-71
2022/11/07 01:27:48;;;;;;;65.80;37.17;;;;;;;15.08;100.00;100125.41;5036984;28;20324;-71
2022/11/07 01:30:14;;;;;;;68.30;38.22;;;;;;;15.14;100.00;100122.00;5036903;28;20029;-71
2022/11/07 01:32:39;;;;;;;62.15;36.70;;;;;;;15.22;99.91;100126.44;5037342;28;20037;-71
2022/11/07 01:35:05;;;;;;;69.63;38.20;;;;;;;15.17;100.00;100124.31;5037313;28;20040;-71
2022/11/07 01:37:30;;;;;;;66.90;38.25;;;;;;;15.20;99.87;100129.28;5038122;28;20445;-71
2022/11/07 01:39:56;;;;;;;70.88;39.67;;;;;;;15.27;99.58;100130.22;5036980;28;20057;-71
2022/11/07 01:42:22;;;;;;;62.15;38.03;;;;;;;15.27;99.43;100122.22;5037581;28;20030;-71
2022/11/07 01:44:54;;;;;;;74.00;39.25;;;;;;;15.14;100.00;100122.00;5035855;28;20021;-71
2022/11/07 01:47:21;;;;;;;68.50;38.20;;;;;;;15.21;100.00;100127.44;5036211;28;20256;-71
2022/11/07 01:49:49;;;;;;;79.03;40.38;;;;;;;14.92;100.00;100123.72;5033854;28;20074;-71
2022/11/07 01:52:29;;;;;;;73.30;39.30;;;;;;;15.09;100.00;100126.25;5035157;28;20029;-71
2022/11/07 01:55:04;;;;;;;66.10;38.58;;;;;;;15.04;100.00;100132.13;5032803;28;20040;-71
2022/11/07 01:57:49;;;;;;;66.78;37.45;;;;;;;14.81;100.00;100131.34;5036980;28;20030;-71
2022/11/07 02:00:18;;;;;;;69.32;37.53;;;;;;;14.90;100.00;100133.75;5036475;28;20049;-71
2022/11/07 02:02:47;;;;;;;63.33;36.30;;;;;;;14.90;100.00;100130.25;5037702;28;20025;-71
2022/11/07 02:05:21;;;;;;;62.15;37.47;;;;;;;14.94;100.00;100127.03;5037109;28;20037;-71
2022/11/07 02:07:46;;;;;;;68.32;36.95;;;;;;;14.97;100.00;100125.84;5037301;28;20088;-71
2022/11/07 02:10:12;;;;;;;68.68;37.08;;;;;;;15.06;100.00;100129.25;5036828;28;20098;-71
2022/11/07 02:12:38;;;;;;;62.67;38.20;;;;;;;14.91;100.00;100130.06;5035683;28;20041;-71
2022/11/07 02:15:06;;;;;;;69.82;38.15;;;;;;;14.93;100.00;100129.88;5037080;28;20266;-71
2022/11/07 02:17:31;;;;;;;67.15;38.22;;;;;;;14.93;100.00;100135.22;5035763;28;20449;-71
2022/11/07 02:19:57;;;;;;;65.63;37.80;;;;;;;15.01;100.00;100141.31;5036340;28;20108;-71
2022/11/07 02:22:44;;;;;;;62.92;37.10;;;;;;;15.07;100.00;100142.41;5036684;28;20060;-71
2022/11/07 02:25:13;;;;;;;63.95;38.30;;;;;;;14.98;100.00;100139.00;5037042;28;20109;-71
2022/11/07 02:27:41;;;;;;;63.42;37.35;;;;;;;14.94;100.00;100142.22;5037110;28;20297;-71
2022/11/07 02:30:19;;;;;;;72.47;37.88;;;;;;;15.00;100.00;100138.81;5036714;28;20045;-71
2022/11/07 02:32:46;;;;;;;75.60;38.35;;;;;;;15.00;100.00;100138.81;5036311;28;20033;-71
2022/11/07 02:35:30;;;;;;;64.43;37.63;;;;;;;15.10;100.00;100142.06;5035733;28;20096;-71
2022/11/07 02:37:55;;;;;;;67.07;38.38;;;;;;;15.12;100.00;100144.53;5035860;28;20029;-71
2022/11/07 02:40:22;;;;;;;64.65;37.25;;;;;;;15.16;100.00;100141.34;5035896;28;20345;-71
2022/11/07 02:42:47;;;;;;;64.15;38.65;;;;;;;15.14;100.00;100153.19;5038295;28;20025;-71
2022/11/07 02:45:17;;;;;;;68.18;36.45;;;;;;;15.05;100.00;100154.28;5034960;28;20386;-71
2022/11/07 02:47:43;;;;;;;68.57;37.55;;;;;;;15.13;100.00;100154.19;5034012;28;20242;-71
2022/11/07 02:50:11;;;;;;;65.75;37.88;;;;;;;15.15;100.00;100154.84;5033342;28;20029;-71
2022/11/07 02:52:37;;;;;;;65.30;37.20;;;;;;;15.18;100.00;100163.31;5033517;28;20789;-71
2022/11/07 02:55:05;;;;;;;64.78;37.60;;;;;;;15.14;100.00;100151.34;5033899;28;20064;-71
2022/11/07 02:57:31;;;;;;;66.88;36.88;;;;;;;15.07;100.00;100150.41;5018855;28;20083;-71
2022/11/07 02:59:56;;;;;;;67.90;38.05;;;;;;;15.00;100.00;100144.97;5034701;28;20108;-71
2022/11/07 03:02:23;;;;;;;63.42;37.55;;;;;;;15.12;100.00;100153.38;5035791;28;20183;-71
2022/11/07 03:04:48;;;;;;;61.08;36.67;;;;;;;15.08;100.00;100140.59;5034519;28;20037;-71
2022/11/07 03:07:14;;;;;;;62.33;38.35;;;;;;;15.05;100.00;100147.09;5034443;28;21080;-71
2022/11/07 03:09:39;;;;;;;69.63;38.47;;;;;;;15.13;100.00;100157.69;5032026;28;20327;-71
2022/11/07 03:12:05;;;;;;;64.07;38.15;;;;;;;15.13;100.00;100159.53;5034252;28;20786;-71
2022/11/07 03:14:30;;;;;;;60.22;37.60;;;;;;;15.06;100.00;100143.44;5034956;28;20038;-71
2022/11/07 03:16:55;;;;;;;67.88;37.42;;;;;;;15.11;100.00;100154.38;5035850;28;20029;-71
2022/11/07 03:19:21;;;;;;;62.95;38.28;;;;;;;15.11;100.00;100153.56;5035357;28;20101;-71
2022/11/07 03:21:49;;;;;;;60.85;35.65;;;;;;;14.95;100.00;100126.03;5035458;28;20093;-71
2022/11/07 03:24:15;;;;;;;59.63;36.78;;;;;;;15.05;100.00;100154.28;5035628;28;20045;-71
2022/11/07 03:26:40;;;;;;;66.75;36.88;;;;;;;15.10;100.00;100155.41;5034703;28;20037;-71
2022/11/07 03:29:05;;;;;;;65.70;37.47;;;;;;;15.10;100.00;100154.56;5018539;28;20030;-71
2022/11/07 03:31:31;;;;;;;65.40;38.83;;;;;;;15.09;99.88;100153.75;5034965;28;20470;-71
2022/11/07 03:33:56;;;;;;;67.05;37.92;;;;;;;15.03;100.00;100154.47;5034996;28;20239;-71
2022/11/07 03:36:22;;;;;;;66.97;39.08;;;;;;;15.01;100.00;100159.16;5034980;28;20100;-71
2022/11/07 03:38:47;;;;;;;70.03;38.30;;;;;;;15.02;100.00;100158.97;5035213;28;20029;-71
2022/11/07 03:41:16;;;;;;;62.33;38.40;;;;;;;15.01;100.00;100151.16;5034998;28;20045;-71
2022/11/07 03:43:44;;;;;;;73.78;38.80;;;;;;;14.98;99.24;100155.00;5034081;28;20029;-71
2022/11/07 03:46:13;;;;;;;65.47;36.85;;;;;;;14.21;98.45;100028.19;5034931;28;20075;-71
2022/11/07 03:48:39;;;;;;;57.50;36.97;;;;;;;14.90;98.37;100155.06;5034947;28;20132;-71
2022/11/07 03:51:05;;;;;;;67.18;36.95;;;;;;;14.83;98.89;100154.13;5035834;28;20037;-71
2022/11/07 03:53:31;;;;;;;66.45;38.67;;;;;;;14.75;99.54;100148.88;5034245;28;20044;-71
2022/11/07 03:55:57;;;;;;;67.57;37.83;;;;;;;14.77;100.00;100162.84;5034376;28;20088;-71
2022/11/07 03:58:24;;;;;;;78.03;40.78;;;;;;;14.77;100.00;100168.19;5035802;28;20373;-71
2022/11/07 04:00:50;;;;;;;72.05;37.30;;;;;;;14.75;100.00;100162.19;5036359;28;20033;-71
2022/11/07 04:03:16;;;;;;;63.85;39.70;;;;;;;14.73;100.00;100168.72;5034268;28;20037;-71
2022/11/07 04:05:41;;;;;;;69.15;38.72;;;;;;;14.68;100.00;100161.25;5031821;28;20024;-71
2022/11/07 04:08:07;;;;;;;67.25;39.63;;;;;;;14.77;100.00;100176.19;5034512;28;20034;-71
2022/11/07 04:10:32;;;;;;;65.20;39.38;;;;;;;14.79;100.00;100168.00;5034721;28;20033;-71
2022/11/07 04:18:28;;;;;;;72.97;39.97;;;;;;;14.83;100.00;100177.31;5035955;28;20067;-71
2022/11/07 04:20:53;;;;;;;72.35;40.58;;;;;;;14.79;100.00;100176.84;5034190;28;20038;-71
2022/11/07 04:23:18;;;;;;;66.28;40.10;;;;;;;14.76;100.00;100182.53;5035122;28;20087;-71
2022/11/07 04:28:28;;;;;;;63.78;39.28;;;;;;;14.85;100.00;100183.28;5037642;28;20048;-71
2022/11/07 04:30:54;;;;;;;78.88;41.22;;;;;;;14.73;100.00;100180.22;5038499;28;20279;-71
2022/11/07 04:33:19;;;;;;;77.78;42.13;;;;;;;14.68;100.00;100171.91;5036329;28;20215;-71
2022/11/07 04:35:44;;;;;;;68.97;41.70;;;;;;;14.65;100.00;100177.59;5035729;28;20040;-71
2022/11/07 04:38:10;;;;;;;77.50;43.40;;;;;;;14.76;100.00;100179.03;5021249;28;20029;-71
2022/11/07 04:40:35;;;;;;;81.40;44.90;;;;;;;14.76;100.00;100174.53;5035997;28;20265;-71
2022/11/07 04:43:07;;;;;;;77.60;44.58;;;;;;;14.67;100.00;100180.91;5036414;28;20428;-71
2022/11/07 04:45:34;;;;;;;81.53;44.90;;;;;;;14.66;100.00;100176.59;5038044;28;20147;-71
2022/11/07 04:47:59;;;;;;;75.22;43.78;;;;;;;14.76;100.00;100182.53;5037622;28;20033;-71
2022/11/07 04:50:25;;;;;;;83.30;44.85;;;;;;;14.76;100.00;100187.03;5035520;28;20026;-71
2022/11/07 04:52:50;;;;;;;78.28;44.75;;;;;;;14.77;100.00;100175.34;5035760;28;20035;-71
2022/11/07 04:55:23;;;;;;;88.65;46.20;;;;;;;14.74;100.00;100173.03;5037657;28;20097;-71
2022/11/07 04:57:49;;;;;;;81.72;48.28;;;;;;;14.79;100.00;100189.31;5035893;28;20060;-71
2022/11/07 05:00:16;;;;;;;88.43;47.97;;;;;;;14.76;100.00;100184.34;5035926;28;20052;-71
2022/11/07 05:02:42;;;;;;;85.10;46.70;;;;;;;14.73;100.00;100182.88;5036460;28;20360;-71
2022/11/07 05:05:08;;;;;;;80.15;46.80;;;;;;;14.74;100.00;100191.69;5035080;28;20092;-71
2022/11/07 05:07:33;;;;;;;76.85;44.53;;;;;;;14.67;100.00;100184.41;5039076;28;20069;-71
2022/11/07 05:09:58;;;;;;;108.65;52.80;;;;;;;14.76;100.00;100198.50;5043501;28;20049;-71
2022/11/07 05:12:24;;;;;;;121.53;53.50;;;;;;;14.68;100.00;100195.91;5045194;28;20105;-71
2022/11/07 05:14:49;;;;;;;82.13;46.17;;;;;;;14.44;100.00;100207.53;5042850;28;20131;-71
2022/11/07 05:17:15;;;;;;;89.05;49.13;;;;;;;14.14;100.00;100201.16;5045115;28;20210;-71
2022/11/07 05:19:44;;;;;;;91.90;49.97;;;;;;;13.82;100.00;100199.47;5043447;28;20045;-71
2022/11/07 05:25:14;;;;;;;82.40;47.03;;;;;;;13.66;100.00;100203.00;4961363;28;20081;-71
2022/11/07 05:27:39;;;;;;;71.38;44.03;;;;;;;13.87;100.00;100207.78;4962993;28;20039;-71
2022/11/07 05:30:06;;;;;;;76.05;43.45;;;;;;;13.55;100.00;100213.19;4999511;28;20103;-71
2022/11/07 05:32:36;;;;;;;74.15;44.30;;;;;;;13.81;100.00;100205.78;5044335;28;20074;-71
2022/11/07 05:35:04;;;;;;;72.55;42.50;;;;;;;14.13;100.00;100214.66;5025353;28;20056;-71
2022/11/07 05:37:29;;;;;;;73.53;40.25;;;;;;;14.31;100.00;100213.41;5042613;28;20029;-71
2022/11/07 05:39:54;;;;;;;72.75;40.50;;;;;;;14.42;100.00;100224.66;5025666;28;20022;-71
2022/11/07 05:42:20;;;;;;;66.18;40.03;;;;;;;14.37;100.00;100223.34;5043280;28;20034;-71
2022/11/07 05:44:45;;;;;;;74.70;39.42;;;;;;;14.34;100.00;100218.38;5042750;28;20030;-70
2022/11/07 05:47:11;;;;;;;75.05;39.58;;;;;;;14.37;100.00;100222.53;5043518;28;20037;-70
2022/11/07 05:49:36;;;;;;;62.60;36.25;;;;;;;14.49;100.00;100241.63;5042840;28;20044;-71
2022/11/07 05:52:01;;;;;;;60.03;36.72;;;;;;;14.52;99.81;100233.28;5024832;28;20033;-71
2022/11/07 05:54:27;;;;;;;65.32;36.63;;;;;;;14.55;100.00;100247.09;5042819;28;20044;-71
2022/11/07 05:56:58;;;;;;;59.72;36.53;;;;;;;14.61;100.00;100253.59;5042799;28;20059;-71
2022/11/07 05:59:24;;;;;;;62.03;36.22;;;;;;;14.55;100.00;100252.41;5042320;28;20045;-71
2022/11/07 06:01:50;;;;;;;66.60;39.58;;;;;;;14.66;99.26;100257.38;5042744;28;20048;-70
2022/11/07 06:04:16;;;;;;;64.50;37.85;;;;;;;14.62;100.00;100264.06;5042554;28;20080;-71
2022/11/07 06:06:41;;;;;;;65.60;36.80;;;;;;;14.77;99.11;100269.47;5041826;28;20100;-71
2022/11/07 06:09:07;;;;;;;61.40;35.83;;;;;;;14.39;100.00;100263.97;5042695;28;20097;-70
2022/11/07 06:11:32;;;;;;;59.92;36.28;;;;;;;14.49;100.00;100279.78;5042344;28;20039;-70
2022/11/07 06:13:57;;;;;;;58.08;33.97;;;;;;;14.60;100.00;100284.75;5042056;28;20041;-70
2022/11/07 06:16:23;;;;;;;63.72;36.17;;;;;;;14.45;100.00;100273.13;5042869;28;20210;-70
2022/11/07 06:18:49;;;;;;;58.47;36.60;;;;;;;14.59;100.00;100283.09;5043781;28;20029;-70
2022/11/07 06:21:15;;;;;;;58.97;33.78;;;;;;;14.73;100.00;100278.00;5041787;28;20331;-71
2022/11/07 06:23:41;;;;;;;54.10;34.10;;;;;;;14.79;100.00;100282.63;5042409;28;20075;-70
2022/11/07 06:26:06;;;;;;;59.55;35.22;;;;;;;14.80;100.00;100290.47;5042178;28;20037;-70
2022/11/07 06:28:32;;;;;;;56.20;34.38;;;;;;;14.93;99.47;100297.88;5042237;28;20030;-70
2022/11/07 06:31:01;;;;;;;61.10;36.05;;;;;;;14.98;99.15;100293.66;5042962;28;20026;-70
2022/11/07 06:33:28;;;;;;;59.03;35.20;;;;;;;15.01;99.11;100300.50;5041792;28;20045;-70
2022/11/07 06:35:54;;;;;;;64.20;35.80;;;;;;;15.00;98.79;100291.66;5042078;28;20249;-70
2022/11/07 06:38:20;;;;;;;58.95;34.85;;;;;;;15.12;99.18;100305.41;5036478;28;20029;-70
2022/11/07 06:40:45;;;;;;;60.53;35.75;;;;;;;15.27;98.52;100300.13;5041833;28;20026;-70
2022/11/07 06:43:16;;;;;;;65.05;37.78;;;;;;;15.31;98.76;100312.09;5025188;28;20224;-70
2022/11/07 06:45:43;;;;;;;66.47;38.25;;;;;;;15.38;98.63;100304.22;5041633;28;20029;-70
2022/11/07 06:48:09;;;;;;;63.65;38.80;;;;;;;15.56;98.70;100316.22;5041614;28;20076;-70
2022/11/07 06:50:35;;;;;;;77.93;41.53;;;;;;;15.62;98.24;100331.59;5041460;28;20366;-70
2022/11/07 06:53:02;;;;;;;70.13;41.10;;;;;;;15.74;97.93;100320.47;5041755;28;20032;-71
2022/11/07 06:55:27;;;;;;;66.88;39.80;;;;;;;15.94;97.06;100321.59;5041632;28;20063;-70
2022/11/07 06:57:57;;;;;;;57.45;35.00;;;;;;;16.08;96.29;100328.81;5041996;28;20056;-71
2022/11/07 07:00:22;;;;;;;66.18;35.63;;;;;;;16.14;95.57;100324.56;5040817;28;20029;-71
2022/11/07 07:02:48;;;;;;;71.22;36.97;;;;;;;16.22;95.37;100329.81;5023812;28;20033;-71
2022/11/07 07:05:13;;;;;;;59.33;36.45;;;;;;;16.27;94.83;100328.25;5024370;28;20127;-70
2022/11/07 07:07:39;;;;;;;55.50;34.92;;;;;;;16.35;95.03;100329.16;5039993;28;20365;-71
2022/11/07 07:10:05;;;;;;;52.72;28.65;;;;;;;16.37;93.78;100329.81;5040571;28;20037;-71
2022/11/07 07:12:30;;;;;;;53.22;28.25;;;;;;;16.41;92.92;100336.44;5041450;28;20254;-70
2022/11/07 07:14:55;;;;;;;46.08;23.10;;;;;;;16.48;91.78;100340.88;5040013;28;20033;-71
2022/11/07 07:17:21;;;;;;;45.05;24.40;;;;;;;16.51;91.88;100337.00;5040573;28;20035;-71
2022/11/07 07:19:46;;;;;;;45.78;23.95;;;;;;;16.53;92.25;100318.91;5040593;28;20088;-71
2022/11/07 07:22:12;;;;;;;52.47;24.45;;;;;;;16.59;91.02;100331.53;5040232;28;20033;-71
2022/11/07 07:24:38;;;;;;;40.60;23.10;;;;;;;16.61;91.03;100334.84;5040499;28;20350;-71
2022/11/07 07:27:03;;;;;;;64.15;26.90;;;;;;;16.56;90.28;100340.75;5040751;28;20033;-71
2022/11/07 07:29:29;;;;;;;41.25;21.25;;;;;;;16.47;89.54;100328.50;5040072;28;20290;-70
2022/11/07 07:31:54;;;;;;;40.97;21.23;;;;;;;16.38;89.04;100328.78;5040425;28;20100;-70
2022/11/07 07:34:19;;;;;;;40.60;22.02;;;;;;;16.10;89.92;100316.09;5039979;28;20102;-70
2022/11/07 07:36:45;;;;;;;42.63;22.90;;;;;;;16.14;90.43;100324.56;5022488;28;20255;-71
2022/11/07 07:39:10;;;;;;;42.53;22.35;;;;;;;16.15;91.70;100324.38;5036122;28;20394;-71
2022/11/07 07:41:36;;;;;;;43.67;21.65;;;;;;;16.30;89.69;100324.38;5040833;28;20026;-71
2022/11/07 07:44:01;;;;;;;40.67;18.88;;;;;;;16.45;88.70;100311.84;5040266;28;20029;-71
2022/11/07 07:46:26;;;;;;;25.15;15.57;;;;;;;16.60;87.13;100333.19;5040338;28;20033;-71
2022/11/07 07:48:52;;;;;;;28.80;14.32;;;;;;;16.70;86.01;100335.63;5040359;28;20426;-71
2022/11/07 07:51:17;;;;;;;26.98;12.27;;;;;;;16.66;84.48;100332.50;5039705;28;20029;-71
2022/11/07 07:53:43;;;;;;;21.70;9.77;;;;;;;16.55;83.02;100339.09;5040452;28;20041;-71
2022/11/07 07:56:08;;;;;;;24.35;10.55;;;;;;;16.31;83.24;100338.56;5039548;28;20157;-71
2022/11/07 07:58:34;;;;;;;22.58;10.50;;;;;;;16.53;84.61;100327.78;5040098;28;20044;-71
2022/11/07 08:00:59;;;;;;;24.75;11.25;;;;;;;16.34;84.58;100323.00;5042012;28;20323;-71
2022/11/07 08:03:26;;;;;;;22.70;10.57;;;;;;;16.24;84.93;100319.78;5043385;28;20331;-70
2022/11/07 08:05:53;;;;;;;24.77;9.70;;;;;;;16.15;83.47;100319.03;5044044;28;20327;-70
2022/11/07 08:08:19;;;;;;;21.27;9.60;;;;;;;16.15;83.44;100311.03;5043352;28;20057;-70
2022/11/07 08:10:45;;;;;;;32.78;9.73;;;;;;;16.06;83.47;100314.78;5043676;28;20037;-70
2022/11/07 08:13:10;;;;;;;19.55;8.90;;;;;;;16.34;83.67;100319.50;5042497;28;20040;-71
2022/11/07 08:15:36;;;;;;;28.05;9.05;;;;;;;16.47;81.94;100319.66;5043493;28;20029;-71
2022/11/07 08:18:02;;;;;;;25.70;9.25;;;;;;;16.31;82.46;100322.53;5044234;28;20033;-70
2022/11/07 08:20:28;;;;;;;23.40;8.63;;;;;;;16.58;81.53;100325.38;5043681;28;20044;-71
2022/11/07 08:23:02;;;;;;;19.73;8.05;;;;;;;16.87;80.99;100319.19;5043672;28;20093;-70
2022/11/07 08:25:27;;;;;;;21.80;8.57;;;;;;;16.83;79.64;100314.41;5025355;28;20025;-70
2022/11/07 08:27:53;;;;;;;17.17;7.38;;;;;;;16.83;79.33;100328.59;5044009;28;20329;-71
2022/11/07 08:30:18;;;;;;;18.30;8.80;;;;;;;16.70;80.19;100311.56;5043191;28;20041;-71
2022/11/07 08:32:44;;;;;;;14.68;6.93;;;;;;;16.71;79.57;100332.78;5043162;28;20079;-71
2022/11/07 08:35:09;;;;;;;16.88;8.02;;;;;;;16.53;80.14;100313.56;5043359;28;20096;-71
2022/11/07 08:37:35;;;;;;;19.40;8.63;;;;;;;16.82;79.37;100328.78;5043009;28;20226;-70
2022/11/07 08:40:00;;;;;;;21.00;8.75;;;;;;;16.80;79.16;100337.00;5043405;28;20100;-70
2022/11/07 08:42:25;;;;;;;26.08;8.68;;;;;;;16.70;78.26;100338.31;5043630;28;20022;-71
2022/11/07 08:44:51;;;;;;;20.13;9.98;;;;;;;16.61;78.98;100343.69;5043240;28;20825;-71
2022/11/07 08:47:17;;;;;;;24.40;8.80;;;;;;;16.86;78.92;100332.75;5043466;28;20293;-71
2022/11/07 08:49:42;;;;;;;18.77;7.90;;;;;;;16.97;77.75;100342.97;5043286;28;20305;-70
2022/11/07 08:52:07;;;;;;;24.73;10.50;;;;;;;17.36;76.63;100339.03;5042949;28;20067;-70
2022/11/07 08:54:33;;;;;;;23.80;9.15;;;;;;;17.37;76.48;100341.50;5025179;28;20041;-70
2022/11/07 08:56:58;;;;;;;18.42;9.25;;;;;;;17.11;76.04;100350.09;5043252;28;20252;-70
2022/11/07 08:59:24;;;;;;;17.25;8.45;;;;;;;17.14;75.54;100347.06;5042708;28;20108;-71
2022/11/07 09:01:49;;;;;;;14.48;7.00;;;;;;;17.03;75.26;100349.41;5043135;28;20061;-70
2022/11/07 09:04:14;;;;;;;18.95;7.75;;;;;;;16.88;76.48;100350.25;5042777;28;20097;-71
2022/11/07 09:06:41;;;;;;;22.77;8.80;;;;;;;16.98;76.74;100341.09;5042379;28;20056;-71
2022/11/07 09:09:06;;;;;;;21.85;9.75;;;;;;;17.23;76.16;100345.06;5042959;28;20033;-71
2022/11/07 09:11:32;;;;;;;26.02;9.68;;;;;;;17.22;75.54;100343.41;5025182;28;20024;-70
2022/11/07 09:13:57;;;;;;;21.15;9.90;;;;;;;17.21;76.20;100353.31;5024530;28;20096;-70
2022/11/07 09:16:23;;;;;;;28.98;11.82;;;;;;;17.42;74.36;100349.78;5042814;28;20048;-71
2022/11/07 09:18:51;;;;;;;32.85;12.05;;;;;;;17.27;75.53;100348.19;5042750;28;20049;-70
2022/11/07 09:21:16;;;;;;;33.22;13.43;;;;;;;17.39;75.14;100344.00;5042221;28;20071;-71
2022/11/07 09:23:42;;;;;;;28.77;14.52;;;;;;;17.28;76.14;100347.19;5042818;28;20026;-71
2022/11/07 09:26:07;;;;;;;31.95;13.15;;;;;;;17.43;76.13;100348.78;5042533;28;20204;-71
2022/11/07 09:28:33;;;;;;;38.85;14.40;;;;;;;17.32;75.43;100343.09;5042446;28;20111;-71
2022/11/07 09:31:01;;;;;;;38.10;14.55;;;;;;;17.34;76.21;100349.09;5024748;28;20035;-71
2022/11/07 09:33:28;;;;;;;38.38;14.55;;;;;;;17.61;74.61;100336.78;5042085;28;20388;-70
2022/11/07 09:35:53;;;;;;;35.08;13.73;;;;;;;17.27;76.34;100342.84;5042295;28;20098;-71
2022/11/07 09:38:19;;;;;;;42.53;16.50;;;;;;;17.37;75.74;100332.66;5041889;28;20335;-71
2022/11/07 09:40:59;;;;;;;34.00;15.27;;;;;;;17.36;75.53;100337.19;5042237;28;20036;-71
2022/11/07 09:43:51;;;;;;;47.88;20.90;;;;;;;17.46;75.27;100315.44;5041989;28;20049;-71
2022/11/07 09:46:35;;;;;;;41.60;20.67;;;;;;;17.52;74.54;100326.19;5042147;28;20253;-71
2022/11/07 09:49:12;;;;;;;44.22;19.42;;;;;;;17.41;74.94;100313.34;5042776;28;20060;-71
2022/11/07 09:51:52;;;;;;;50.22;21.67;;;;;;;17.40;75.06;100318.88;5023963;28;20311;-71
2022/11/07 09:54:27;;;;;;;41.55;20.33;;;;;;;17.53;74.52;100319.00;5041694;28;20033;-71
2022/11/07 09:56:56;;;;;;;43.47;19.35;;;;;;;17.64;74.40;100317.66;5042028;28;20302;-71
2022/11/07 09:59:28;;;;;;;46.03;19.88;;;;;;;17.58;75.05;100310.38;5023776;28;20391;-71
2022/11/07 10:01:54;;;;;;;40.83;18.33;;;;;;;17.67;73.98;100309.25;5041950;28;20075;-71
2022/11/07 10:04:22;;;;;;;48.25;20.60;;;;;;;17.64;74.14;100306.94;5041755;28;20323;-71
2022/11/07 10:07:13;;;;;;;45.03;20.38;;;;;;;17.83;73.96;100298.28;5048514;28;20047;-71
2022/11/07 10:10:00;;;;;;;49.70;21.58;;;;;;;17.61;73.86;100300.13;5014774;28;20357;-71
2022/11/07 10:12:31;;;;;;;46.10;20.83;;;;;;;17.68;74.38;100303.69;5041808;28;20307;-71
2022/11/07 10:15:02;;;;;;;41.33;21.63;;;;;;;17.68;73.90;100303.69;5041102;28;20327;-71
2022/11/07 10:17:50;;;;;;;45.83;21.00;;;;;;;17.96;73.17;100302.91;5041957;28;20310;-71
2022/11/07 10:20:54;;;;;;;45.05;20.85;;;;;;;17.93;73.32;100295.25;5040211;28;20029;-71
2022/11/07 10:23:40;;;;;;;41.58;18.40;;;;;;;18.11;72.83;100299.06;5045096;28;20037;-70
2022/11/07 10:26:09;;;;;;;33.45;17.35;;;;;;;18.02;72.57;100296.75;5047895;28;20041;-68
2022/11/07 10:28:59;;;;;;;37.20;17.45;;;;;;;18.01;73.36;100292.41;5055026;28;20061;-69
2022/11/07 10:31:37;;;;;;;34.97;16.90;;;;;;;18.18;72.08;100289.22;5031965;28;20383;-69
2022/11/07 10:34:30;;;;;;;39.90;17.58;;;;;;;18.33;71.67;100288.25;5040933;28;20049;-69
2022/11/07 10:36:55;;;;;;;37.35;17.42;;;;;;;18.31;71.36;100277.72;5040952;28;20040;-69
2022/11/07 10:39:21;;;;;;;33.85;16.95;;;;;;;18.44;70.60;100277.78;5041181;28;20033;-69
2022/11/07 10:42:01;;;;;;;34.38;16.95;;;;;;;18.55;70.53;100273.72;5041164;28;20219;-69
2022/11/07 10:44:28;;;;;;;33.03;16.50;;;;;;;18.51;69.67;100254.50;5040725;28;20158;-70
2022/11/07 10:46:54;;;;;;;36.47;17.13;;;;;;;18.61;69.55;100256.84;5041081;28;20273;-70
2022/11/07 10:49:21;;;;;;;33.22;16.88;;;;;;;18.60;69.72;100265.06;5041025;28;20057;-69
2022/11/07 10:51:48;;;;;;;34.20;17.02;;;;;;;18.70;69.35;100261.00;5022899;28;20045;-70
2022/11/07 10:54:25;;;;;;;34.33;16.65;;;;;;;18.44;69.94;100255.50;5039811;28;20044;-70
2022/11/07 10:56:59;;;;;;;32.75;16.15;;;;;;;18.11;71.05;100250.00;5041068;28;20033;-68
2022/11/07 10:59:28;;;;;;;;;;;;;;;18.14;71.16;100247.75;5040472;28;20045;-68
2022/11/07 11:01:57;;;;;;;27.70;15.85;;;;;;;18.26;70.81;100245.34;5023102;28;19913;-68
2022/11/07 11:04:25;;;;;;;36.30;15.65;;;;;;;18.32;71.30;100243.72;5040767;28;20092;-68
2022/11/07 11:07:12;;;;;;;31.95;16.13;;;;;;;18.43;70.60;100232.41;5040056;28;20045;-68
2022/11/07 11:09:48;;;;;;;34.05;16.50;;;;;;;18.51;70.05;100230.38;5039639;28;20036;-68
2022/11/07 11:12:15;;;;;;;31.33;15.40;;;;;;;18.29;70.54;100214.63;5040787;28;20044;-70
2022/11/07 11:14:41;;;;;;;36.75;16.85;;;;;;;18.16;70.50;100226.13;5040183;28;20072;-68
2022/11/07 11:17:24;;;;;;;38.03;17.05;;;;;;;18.12;70.60;100217.66;5038157;28;20042;-70
2022/11/07 11:19:52;;;;;;;31.83;16.38;;;;;;;18.10;71.49;100218.88;5031693;28;20072;-68
2022/11/07 11:22:22;;;;;;;30.33;15.85;;;;;;;18.30;70.73;100213.59;5017243;28;20215;-69
2022/11/07 11:25:00;;;;;;;34.13;16.05;;;;;;;18.51;69.76;100208.91;5031593;28;20108;-69